Flight Track Log - Related Links

Times and Time Zones

All times are in EDT time to prevent confusion due to time zone crossing. See the N555WL flight status page for this flight to view local times or setup timezone preferences in your user account.

Time Position Orientation Groundspeed Altitude Reporting Facility
EDT Latitude Longitude Course Direction KTS MPH feet Rate Location/Type
Wed 02:38:14 PM 45.0142 -84.8897 155° Southeast 243 280 10,600  Level Minneapolis Center
Wed 02:39:16 PM 44.9406 -84.8453 157° South 266 306 13,800 2,129 Climbing Minneapolis Center
Wed 02:40:18 PM 44.8583 -84.8394 177° South 282 325 15,000 581 Climbing Minneapolis Center
Wed 02:41:20 PM 44.7814 -84.8247 172° South 306 352 15,000  Level Minneapolis Center
Wed 02:42:21 PM 44.6797 -84.7792 162° South 317 365 15,000  Level Minneapolis Center
Wed 02:43:23 PM 44.5969 -84.7186 152° Southeast 331 381 15,000  Level Minneapolis Center
Wed 02:44:25 PM 44.5131 -84.6597 153° Southeast 335 386 15,000  Level Minneapolis Center
Wed 02:45:27 PM 44.4283 -84.6019 154° Southeast 336 387 15,000  Level Minneapolis Center
Wed 02:46:29 PM 44.3372 -84.5394 154° Southeast 341 392 15,000  Level Minneapolis Center
Wed 02:47:30 PM 44.2550 -84.4828 154° Southeast 334 384 15,000  Level Minneapolis Center
Wed 02:48:32 PM 44.1647 -84.4214 154° Southeast 337 388 15,000  Level Minneapolis Center
Wed 02:49:34 PM 44.0764 -84.3589 153° Southeast 333 383 15,000  Level Minneapolis Center
Wed 02:50:36 PM 43.9931 -84.3031 154° Southeast 335 386 15,000  Level Minneapolis Center
Wed 02:51:37 PM 43.9072 -84.2447 154° Southeast 329 379 15,000 -49 Level Minneapolis Center
Wed 02:52:39 PM 43.8231 -84.1864 153° Southeast 334 384 14,900 -48 Descending Minneapolis Center
Wed 02:53:41 PM 43.7389 -84.1300 154° Southeast 336 387 14,900  Level Minneapolis Center
Wed 02:54:43 PM 43.6531 -84.0772 156° South 336 387 14,900  Level Minneapolis Center
Wed 02:55:45 PM 43.5644 -84.0419 164° South 334 384 14,900 -634 Level Minneapolis Center
Wed 02:56:46 PM 43.4744 -84.0044 163° South 335 386 13,600 -1,317 Descending Minneapolis Center
Wed 02:57:48 PM 43.3886 -83.9669 162° South 329 379 12,200 -1,258 Descending Minneapolis Center
Wed 02:58:50 PM 43.3047 -83.9325 163° South 320 368 11,000 -968 Descending Minneapolis Center
Wed 02:59:52 PM 43.2044 -83.8889 162° South 318 366 10,200 -1,268 Descending Minneapolis Center
Wed 03:00:53 PM 43.1275 -83.8592 164° South 309 356 8,400 -1,268 Descending Minneapolis Center
Wed 03:01:55 PM 43.0567 -83.8303 163° South 303 349 7,600 -1,920 Descending Minneapolis Center
Wed 03:02:58 PM 42.9864 -83.7989 162° South 263 303 4,400 -2,057 Descending Cleveland Center
Wed 03:03:40 PM 42.9389 -83.7794 163° South 246 283 4,000 -400 Descending Cleveland Center
Wed 03:03:58 PM 42.9225 -83.7731 164° South 252 290 4,000 140 Level Cleveland Center
Wed 03:04:23 PM 42.8936 -83.7603 162° South 244 281 4,100  Climbing Cleveland Center
Wed 03:04:58 PM 42.8567 -83.7469 165° South 252 290 4,000  Descending Cleveland Center
Wed 03:05:18 PM 42.8339 -83.7344 158° South 244 281 4,100  Climbing Cleveland Center
Wed 03:05:58 PM 42.7903 -83.7267 173° South 247 284 4,000  Descending Cleveland Center
Wed 03:06:31 PM 42.7533 -83.7133 165° South 244 281 4,100  Climbing Cleveland Center
Wed 03:06:58 PM 42.7369 -83.6956 141° Southeast 234 269 4,000 -250 Descending Cleveland Center
Wed 03:07:19 PM 42.7150 -83.6664 136° Southeast 246 283 3,900 -1,024 Descending Cleveland Center
Wed 03:08:20 PM 42.6708 -83.5992 132° Southeast 215 247 2,600 -836 Descending Cleveland Center
Wed 03:09:21 PM 42.6600 -83.5367 103° East 154 177 2,200 -492 Descending Cleveland Center
Wed 03:10:22 PM 42.6633 -83.4803 85° East 139 160 1,600 -590 Descending Cleveland Center
Wed 03:12:00 PM 42.6500 -83.4167 144° Southeast  Level FlightAware Approximate
Wed 03:19:00 PM 42.6656 -83.4205 144° Southeast  Level Estimated

Login

Don't have an account? Register now (free) for customized features, flight alerts, and more!